Airfield :
LOGIN :

Register | Disclaimer

   EN    FR    IT 

 










Legend :    VFR   Marginal VFR   IFR   Intensive IFR   Very Intensive IFR
Visi :
Ceiling :
>= 8 km
>= 3000ft
5 to 8 km
1000 to 3000 ft
1500m to 5 km
500 to 1000 ft
800 to 1500m
200 to 500 ft
< 800m
< 200 ft
Symbols :   Thunderstorms  Fog  Heavy snow  Heavy precipitations  Wind > 20 kt
SIGMETs :     Misc.  Thunderstorms  Icing  Turbulence  Mountain Waves  Volcanic Ashes







- Airport Elevation : 465 ft


ENFB - Statfjord B Platform

CURRENT METAR :
  • 211750Z AUTO 22026KT 2600NDV -RA BR BKN004/// 09/09 Q1019 W///S4

EXPIRED METARs :
  • 211720Z AUTO 22024KT 2700NDV -RA BR BKN004/// 08/08 Q1018 W///S4
  • 211650Z AUTO 22027KT 9000NDV -RA OVC006/// 08/08 Q1018 W///S4
  • 211620Z AUTO 21026KT 5000NDV -RA OVC006/// 08/08 Q1017 W///S4
  • 211550Z AUTO 21026KT 4800NDV -RA BR OVC006/// 08/08 Q1017 W///S4
  • 211520Z AUTO 21026KT 4400NDV -RA BR OVC005/// 08/08 Q1016 W///S4
  • 211450Z AUTO 21023KT 6000NDV -RA BKN005/// 08/08 Q1016 W///S4

TAF N/A
No reported NOTAMs for that airfield.



MET'MAP, your aeronautical weather chart ! - Copyright ORBIFLY December 2007 - Disclaimer

ORBIFLY MET'MAP TEAM :

Programming & Development : Alexandra Zaïnal
Concept & Development : Baudouin d'Aumeries
Co-Development & Prog : Marc-Olivier Méhu
Technical & hardware support : Manuel Goepfert

Contact : metmap@orbifly.com




SOURCES & CREDITS :

   NOAA